createdAt,value
2018-10-07T00:00:45.252Z,1.27
2018-10-07T00:03:19.618Z,1.13
2018-10-07T00:05:53.683Z,1.07
2018-10-07T00:08:27.793Z,1.43
2018-10-07T00:11:01.654Z,1.83
2018-10-07T00:13:35.601Z,1.13
2018-10-07T00:16:09.687Z,1.63
2018-10-07T00:18:43.507Z,1.20
2018-10-07T00:21:17.323Z,1.30
2018-10-07T00:23:51.101Z,1.23
2018-10-07T00:26:25.029Z,1.70
2018-10-07T00:28:58.833Z,1.20
2018-10-07T00:31:37.662Z,0.87
2018-10-07T00:34:11.886Z,1.30
2018-10-07T00:36:45.866Z,1.43
2018-10-07T00:39:19.992Z,1.23
2018-10-07T00:41:54.045Z,1.37
2018-10-07T00:44:28.104Z,1.23
2018-10-07T00:47:01.899Z,1.10
2018-10-07T00:49:36.050Z,1.33
2018-10-07T00:52:09.857Z,1.17
2018-10-07T00:54:43.719Z,1.00
2018-10-07T00:57:17.630Z,1.03
2018-10-07T00:59:52.513Z,1.23
2018-10-07T01:02:26.493Z,1.30
2018-10-07T01:05:00.536Z,1.10
2018-10-07T01:07:34.595Z,1.27
2018-10-07T01:10:08.631Z,1.30
2018-10-07T01:12:42.594Z,1.23
2018-10-07T01:15:16.482Z,1.33
2018-10-07T01:17:50.844Z,1.30
2018-10-07T01:20:25.493Z,1.17
2018-10-07T01:23:00.048Z,1.10
2018-10-07T01:25:34.065Z,1.10
2018-10-07T01:28:08.936Z,1.23
2018-10-07T01:30:43.689Z,1.50
2018-10-07T01:33:17.982Z,1.27
2018-10-07T01:35:51.762Z,1.27
2018-10-07T01:38:26.699Z,1.00
2018-10-07T01:41:01.580Z,1.10
2018-10-07T01:43:35.489Z,1.00
2018-10-07T01:46:10.129Z,0.90
2018-10-07T01:48:44.220Z,1.23
2018-10-07T01:51:18.293Z,1.00
2018-10-07T01:53:52.278Z,1.30
2018-10-07T01:56:26.706Z,1.20
2018-10-07T01:59:00.640Z,1.30
2018-10-07T02:01:35.956Z,1.20
2018-10-07T02:04:10.086Z,1.10
2018-10-07T02:06:43.898Z,1.33
2018-10-07T02:09:18.451Z,1.13
2018-10-07T02:11:52.275Z,1.20
2018-10-07T02:14:26.757Z,1.20
2018-10-07T02:17:00.814Z,1.20
2018-10-07T02:19:35.674Z,1.20
2018-10-07T02:22:10.533Z,1.20
2018-10-07T02:24:44.558Z,1.60
2018-10-07T02:27:18.541Z,1.10
2018-10-07T02:29:52.482Z,1.17
2018-10-07T02:32:26.214Z,1.27
2018-10-07T02:35:00.826Z,1.20
2018-10-07T02:37:34.895Z,1.10
2018-10-07T02:40:09.532Z,1.00
2018-10-07T02:42:44.465Z,1.50
2018-10-07T02:45:18.624Z,1.00
2018-10-07T02:47:53.482Z,1.50
2018-10-07T02:50:27.441Z,1.27
2018-10-07T02:53:01.742Z,1.00
2018-10-07T02:55:35.703Z,1.17
2018-10-07T02:58:11.068Z,1.00
2018-10-07T03:00:46.130Z,1.10
2018-10-07T03:03:21.087Z,0.97
2018-10-07T03:05:55.201Z,1.00
2018-10-07T03:08:29.311Z,1.13
2018-10-07T03:11:03.526Z,1.20
2018-10-07T03:13:39.432Z,1.10
2018-10-07T03:16:14.838Z,1.03
2018-10-07T03:18:49.140Z,1.20
2018-10-07T03:21:23.078Z,1.20
2018-10-07T03:23:57.143Z,1.33
2018-10-07T03:26:32.919Z,1.13
2018-10-07T03:29:07.242Z,1.30
2018-10-07T03:31:42.442Z,1.10
2018-10-07T03:34:16.518Z,0.90
2018-10-07T03:36:50.543Z,0.80
2018-10-07T03:39:25.505Z,1.00
2018-10-07T03:41:59.651Z,0.93
2018-10-07T03:44:33.374Z,0.90
2018-10-07T03:47:07.987Z,0.70
2018-10-07T03:49:42.500Z,0.60
2018-10-07T03:52:17.115Z,0.60
2018-10-07T03:54:52.459Z,0.90
2018-10-07T03:57:28.132Z,0.90
2018-10-07T04:00:02.318Z,1.10
2018-10-07T04:02:37.635Z,0.83
2018-10-07T04:05:11.952Z,1.00
2018-10-07T04:07:45.969Z,0.60
2018-10-07T04:10:19.935Z,0.63
2018-10-07T04:12:53.788Z,0.60
2018-10-07T04:15:28.250Z,0.60
2018-10-07T04:18:02.104Z,0.60
2018-10-07T04:20:35.936Z,0.60
2018-10-07T04:23:10.797Z,0.60
2018-10-07T04:25:45.552Z,0.60
2018-10-07T04:28:19.421Z,0.60
2018-10-07T04:30:53.406Z,0.80
2018-10-07T04:33:28.070Z,0.70
2018-10-07T04:36:02.417Z,0.60
2018-10-07T04:38:37.225Z,0.67
2018-10-07T04:41:18.246Z,0.63
2018-10-07T04:43:52.002Z,0.60
2018-10-07T04:46:26.664Z,0.60
2018-10-07T04:49:01.328Z,0.83
2018-10-07T04:51:35.444Z,0.60
2018-10-07T04:54:09.498Z,0.60
2018-10-07T04:56:43.495Z,0.60
2018-10-07T04:59:18.269Z,0.60
2018-10-07T05:01:52.342Z,0.70
2018-10-07T05:04:26.367Z,0.70
2018-10-07T05:07:01.024Z,0.50
2018-10-07T05:09:35.951Z,0.70
2018-10-07T05:12:10.090Z,0.63
2018-10-07T05:14:44.989Z,0.80
2018-10-07T05:17:19.643Z,0.70
2018-10-07T05:19:54.802Z,0.50
2018-10-07T05:22:28.983Z,0.70
2018-10-07T05:25:04.038Z,0.50
2018-10-07T05:27:38.987Z,0.50
2018-10-07T05:30:12.971Z,0.60
2018-10-07T05:32:47.038Z,0.67
2018-10-07T05:35:21.410Z,0.60
2018-10-07T05:37:55.350Z,0.60
2018-10-07T05:40:29.979Z,0.60
2018-10-07T05:43:04.015Z,0.63
2018-10-07T05:45:37.941Z,0.63
2018-10-07T05:48:12.926Z,0.60
2018-10-07T05:50:48.080Z,0.60
2018-10-07T05:53:22.548Z,0.63
2018-10-07T05:55:57.132Z,0.70
2018-10-07T05:58:31.431Z,0.60
2018-10-07T06:01:09.179Z,0.60
2018-10-07T06:03:48.697Z,0.80
2018-10-07T06:06:23.386Z,0.70
2018-10-07T06:08:57.275Z,0.77
2018-10-07T06:11:32.755Z,0.80
2018-10-07T06:14:06.988Z,0.53
2018-10-07T06:16:41.777Z,0.87
2018-10-07T06:19:15.971Z,0.50
2018-10-07T06:21:50.435Z,0.60
2018-10-07T06:24:24.691Z,0.70
2018-10-07T06:26:58.625Z,0.80
2018-10-07T06:29:33.844Z,0.77
2018-10-07T06:32:07.673Z,0.60
2018-10-07T06:34:42.980Z,0.50
2018-10-07T06:37:16.894Z,0.80
2018-10-07T06:39:51.042Z,0.90
2018-10-07T06:42:24.926Z,0.80
2018-10-07T06:44:59.640Z,0.83
2018-10-07T06:47:34.228Z,0.60
2018-10-07T06:50:08.285Z,0.90
2018-10-07T06:52:43.150Z,0.60
2018-10-07T06:55:17.744Z,0.60
2018-10-07T06:57:52.228Z,0.70
2018-10-07T07:00:26.245Z,0.80
2018-10-07T07:03:00.125Z,0.60
2018-10-07T07:05:34.741Z,0.77
2018-10-07T07:08:08.693Z,0.70
2018-10-07T07:10:42.587Z,0.83
2018-10-07T07:13:16.380Z,0.70
2018-10-07T07:15:50.642Z,0.80
2018-10-07T07:18:25.236Z,0.63
2018-10-07T07:21:00.448Z,0.60
2018-10-07T07:23:35.003Z,0.70
2018-10-07T07:26:09.130Z,0.63
2018-10-07T07:28:43.861Z,0.90
2018-10-07T07:31:18.073Z,0.67
2018-10-07T07:33:51.847Z,0.70
2018-10-07T07:36:25.763Z,0.60
2018-10-07T07:39:00.165Z,0.50
2018-10-07T07:41:34.990Z,0.70
2018-10-07T07:44:09.489Z,0.60
2018-10-07T07:46:43.465Z,0.77
2018-10-07T07:49:18.060Z,0.80
2018-10-07T07:51:52.675Z,0.70
2018-10-07T07:54:26.682Z,0.70
2018-10-07T07:57:00.573Z,0.60
2018-10-07T07:59:34.451Z,0.83
2018-10-07T08:02:08.540Z,0.50
2018-10-07T08:04:42.666Z,0.77
2018-10-07T08:07:16.643Z,0.90
2018-10-07T08:09:51.512Z,0.63
2018-10-07T08:12:25.920Z,0.50
2018-10-07T08:15:00.714Z,0.70
2018-10-07T08:17:34.785Z,0.60
2018-10-07T08:20:09.561Z,0.63
2018-10-07T08:22:43.742Z,0.80
2018-10-07T08:25:17.764Z,0.70
2018-10-07T08:27:51.938Z,0.53
2018-10-07T08:30:27.002Z,0.60
2018-10-07T08:33:01.542Z,0.53
2018-10-07T08:35:36.559Z,0.70
2018-10-07T08:38:10.429Z,0.50
2018-10-07T08:40:44.574Z,0.50
2018-10-07T08:43:19.201Z,0.70
2018-10-07T08:45:53.075Z,0.47
2018-10-07T08:48:27.237Z,0.50
2018-10-07T08:51:02.081Z,0.60
2018-10-07T08:53:38.064Z,0.83
2018-10-07T08:56:12.119Z,0.50
2018-10-07T08:58:47.188Z,0.47
2018-10-07T09:01:21.872Z,0.50
2018-10-07T09:03:56.017Z,0.50
2018-10-07T09:06:30.620Z,0.70
2018-10-07T09:09:06.953Z,0.30
2018-10-07T09:11:41.337Z,0.60
2018-10-07T09:14:15.684Z,0.50
2018-10-07T09:16:50.723Z,0.67
2018-10-07T09:19:25.533Z,0.30
2018-10-07T09:22:00.266Z,0.50
2018-10-07T09:24:34.461Z,0.77
2018-10-07T09:27:09.753Z,0.60
2018-10-07T09:29:43.871Z,0.47
2018-10-07T09:32:17.959Z,0.60
2018-10-07T09:34:53.146Z,0.40
2018-10-07T09:37:26.956Z,0.57
2018-10-07T09:40:01.280Z,0.43
2018-10-07T09:42:35.384Z,0.53
2018-10-07T09:45:09.558Z,0.47
2018-10-07T09:47:43.715Z,0.50
2018-10-07T09:50:17.749Z,0.80
2018-10-07T09:52:51.974Z,0.40
2018-10-07T09:55:26.891Z,0.50
2018-10-07T09:58:01.150Z,0.60
2018-10-07T10:00:39.537Z,0.40
2018-10-07T10:05:53.114Z,0.50
2018-10-07T10:08:27.242Z,0.47
2018-10-07T10:11:02.513Z,0.50
2018-10-07T10:13:37.372Z,0.63
2018-10-07T10:16:12.102Z,0.50
2018-10-07T10:18:48.322Z,1.53
2018-10-07T10:21:38.027Z,0.90
2018-10-07T10:24:17.699Z,0.40
2018-10-07T10:27:09.511Z,0.43
2018-10-07T10:29:46.363Z,0.47
2018-10-07T10:32:27.231Z,0.70
2018-10-07T10:35:11.579Z,0.50
2018-10-07T10:38:01.441Z,0.50
2018-10-07T10:40:37.319Z,0.70
2018-10-07T10:43:28.179Z,0.60
2018-10-07T10:46:04.538Z,0.57
2018-10-07T10:48:40.962Z,0.20
2018-10-07T10:51:31.278Z,0.30
2018-10-07T10:54:08.040Z,0.70
2018-10-07T10:56:45.625Z,0.70
2018-10-07T10:59:23.292Z,0.57
2018-10-07T11:02:02.499Z,0.40
2018-10-07T11:04:38.553Z,0.40
2018-10-07T11:07:15.862Z,0.70
2018-10-07T11:09:55.285Z,0.47
2018-10-07T11:12:33.497Z,0.60
2018-10-07T11:15:16.414Z,0.57
2018-10-07T11:19:59.171Z,0.60
2018-10-07T11:22:51.588Z,0.50
2018-10-07T11:25:32.236Z,0.43
2018-10-07T11:28:12.009Z,0.50
2018-10-07T11:30:50.504Z,0.50
2018-10-07T11:35:32.778Z,0.60
2018-10-07T11:38:16.029Z,0.60
2018-10-07T11:40:54.794Z,0.53
2018-10-07T11:45:41.368Z,0.37
2018-10-07T11:49:18.525Z,1.50
2018-10-07T11:52:02.713Z,0.47
2018-10-07T11:54:42.280Z,0.37
2018-10-07T11:57:16.801Z,0.30
2018-10-07T11:59:51.471Z,0.60
2018-10-07T12:02:25.564Z,0.50
2018-10-07T12:04:59.406Z,0.40
2018-10-07T12:07:33.562Z,0.40
2018-10-07T12:10:07.658Z,0.37
2018-10-07T12:12:41.400Z,0.50
2018-10-07T12:15:16.872Z,0.33
2018-10-07T12:17:50.730Z,0.40
2018-10-07T12:20:24.659Z,0.40
2018-10-07T12:22:58.634Z,0.50
2018-10-07T12:25:32.749Z,0.50
2018-10-07T12:28:07.156Z,0.50
2018-10-07T12:30:42.848Z,0.50
2018-10-07T12:33:16.813Z,0.50
2018-10-07T12:35:51.610Z,0.50
2018-10-07T12:38:25.551Z,0.50
2018-10-07T12:40:59.767Z,0.60
2018-10-07T12:43:34.310Z,0.50
2018-10-07T12:46:09.253Z,0.43
2018-10-07T12:48:43.354Z,0.33
2018-10-07T12:51:17.180Z,0.40
2018-10-07T12:53:51.705Z,0.37
2018-10-07T12:56:25.657Z,0.33
2018-10-07T12:59:02.277Z,0.30
2018-10-07T13:01:36.856Z,0.40
2018-10-07T13:04:11.060Z,0.30
2018-10-07T13:06:44.963Z,0.30
2018-10-07T13:09:19.525Z,0.10
2018-10-07T13:11:55.532Z,0.20
2018-10-07T13:14:29.313Z,0.20
2018-10-07T13:17:03.483Z,0.10
2018-10-07T13:19:37.832Z,0.10
2018-10-07T13:22:11.673Z,0.30
2018-10-07T13:24:45.588Z,0.20
2018-10-07T13:27:19.421Z,0.13
2018-10-07T13:29:53.717Z,0.10
2018-10-07T13:32:27.609Z,0.27
2018-10-07T13:35:01.529Z,0.23
2018-10-07T13:37:36.055Z,0.20
2018-10-07T13:40:10.001Z,0.10
2018-10-07T13:42:44.584Z,0.20
2018-10-07T13:45:18.512Z,0.10
2018-10-07T13:47:52.505Z,0.00
2018-10-07T13:50:26.253Z,0.10
2018-10-07T13:53:00.322Z,0.20
2018-10-07T13:55:35.077Z,0.20
2018-10-07T13:58:08.955Z,0.30
2018-10-07T14:00:43.014Z,0.20
2018-10-07T14:03:17.700Z,0.23
2018-10-07T14:05:51.647Z,0.20
2018-10-07T14:08:25.561Z,0.30
2018-10-07T14:10:59.487Z,0.30
2018-10-07T14:13:33.155Z,0.30
2018-10-07T14:16:07.200Z,0.10
2018-10-07T14:18:41.337Z,0.20
2018-10-07T14:21:15.273Z,0.20
2018-10-07T14:23:49.304Z,0.23
2018-10-07T14:26:23.126Z,0.20
2018-10-07T14:28:57.056Z,0.10
2018-10-07T14:31:31.033Z,0.90
2018-10-07T14:34:04.905Z,0.97
2018-10-07T14:36:38.814Z,0.30
2018-10-07T14:39:13.730Z,0.40
2018-10-07T14:41:47.520Z,0.20
2018-10-07T14:44:21.351Z,0.20
2018-10-07T14:46:55.137Z,0.10
2018-10-07T14:49:28.761Z,0.10
2018-10-07T14:52:02.696Z,0.10
2018-10-07T14:54:36.639Z,0.67
2018-10-07T14:57:10.512Z,0.23
2018-10-07T14:59:44.582Z,0.10
2018-10-07T15:02:18.765Z,0.40
2018-10-07T15:04:53.093Z,0.17
2018-10-07T15:07:27.178Z,0.33
2018-10-07T15:10:43.749Z,0.30
2018-10-07T15:13:18.629Z,0.20
2018-10-07T15:15:52.656Z,0.33
2018-10-07T15:18:26.554Z,0.20
2018-10-07T15:21:00.641Z,0.30
2018-10-07T15:23:34.757Z,0.30
2018-10-07T15:26:08.628Z,0.30
2018-10-07T15:28:42.423Z,0.37
2018-10-07T15:31:16.212Z,0.43
2018-10-07T15:33:50.098Z,0.40
2018-10-07T15:36:24.125Z,0.50
2018-10-07T15:38:58.107Z,0.50
2018-10-07T15:41:32.179Z,0.37
2018-10-07T15:44:05.992Z,0.37
2018-10-07T15:46:39.953Z,0.30
2018-10-07T15:49:13.729Z,0.33
2018-10-07T15:51:47.928Z,0.47
2018-10-07T15:54:21.954Z,0.50
2018-10-07T15:56:56.074Z,0.47
2018-10-07T15:59:30.574Z,0.40
2018-10-07T16:02:05.403Z,0.33
2018-10-07T16:04:39.458Z,0.37
2018-10-07T16:07:14.934Z,0.47
2018-10-07T16:09:50.112Z,1.20
2018-10-07T16:12:31.117Z,0.50
2018-10-07T16:23:42.745Z,0.57
2018-10-07T16:26:32.000Z,1.47
2018-10-07T16:29:19.508Z,0.73
2018-10-07T16:32:02.052Z,0.50
2018-10-07T16:35:23.988Z,0.50
2018-10-07T16:38:10.903Z,0.40
2018-10-07T16:40:54.968Z,0.57
2018-10-07T16:43:29.700Z,0.63
2018-10-07T16:46:25.017Z,0.70
2018-10-07T16:49:13.962Z,0.60
2018-10-07T16:51:47.894Z,0.80
2018-10-07T16:54:21.719Z,0.60
2018-10-07T16:56:55.676Z,0.60
2018-10-07T16:59:29.589Z,0.87
2018-10-07T17:02:03.648Z,0.60
2018-10-07T17:04:37.679Z,0.80
2018-10-07T17:07:11.545Z,0.60
2018-10-07T17:09:45.365Z,0.90
2018-10-07T17:12:19.304Z,1.00
2018-10-07T17:14:53.313Z,0.67
2018-10-07T17:17:27.136Z,0.60
2018-10-07T17:20:00.991Z,0.70
2018-10-07T17:22:34.902Z,0.83
2018-10-07T17:25:08.656Z,0.80
2018-10-07T17:27:42.628Z,0.70
2018-10-07T17:30:16.537Z,0.83
2018-10-07T17:32:50.668Z,1.03
2018-10-07T17:35:24.472Z,1.00
2018-10-07T17:37:58.453Z,0.73
2018-10-07T17:40:33.985Z,1.00
2018-10-07T17:43:08.044Z,3.10
2018-10-07T17:45:42.000Z,1.10
2018-10-07T17:48:15.899Z,0.90
2018-10-07T17:50:49.880Z,0.70
2018-10-07T17:53:23.912Z,0.87
2018-10-07T17:55:57.676Z,0.90
2018-10-07T17:58:31.450Z,1.20
2018-10-07T18:01:05.401Z,1.00
2018-10-07T18:03:39.267Z,0.93
2018-10-07T18:06:13.255Z,0.90
2018-10-07T18:08:47.235Z,0.90
2018-10-07T18:11:21.469Z,1.10
2018-10-07T18:13:55.588Z,0.93
2018-10-07T18:16:29.893Z,0.90
2018-10-07T18:19:03.946Z,0.60
2018-10-07T18:21:38.000Z,1.00
2018-10-07T18:24:12.042Z,1.00
2018-10-07T18:26:48.309Z,1.10
2018-10-07T18:29:22.223Z,0.73
2018-10-07T18:31:56.242Z,1.00
2018-10-07T18:34:30.298Z,1.20
2018-10-07T18:37:04.454Z,1.20
2018-10-07T18:39:38.462Z,1.00
2018-10-07T18:42:12.966Z,1.37
2018-10-07T18:44:47.058Z,0.90
2018-10-07T18:47:21.018Z,1.10
2018-10-07T18:49:55.071Z,1.30
2018-10-07T18:52:29.218Z,1.33
2018-10-07T18:55:03.086Z,1.70
2018-10-07T18:57:37.673Z,2.00
2018-10-07T19:00:11.862Z,2.00
2018-10-07T19:02:46.041Z,2.10
2018-10-07T19:05:19.681Z,2.40
2018-10-07T19:07:53.628Z,2.43
2018-10-07T19:10:27.424Z,2.80
2018-10-07T19:13:01.417Z,3.00
2018-10-07T19:15:35.099Z,2.53
2018-10-07T19:18:09.081Z,2.63
2018-10-07T19:20:42.893Z,3.20
2018-10-07T19:23:16.955Z,2.60
2018-10-07T19:25:50.787Z,2.70
2018-10-07T19:28:24.667Z,2.70
2018-10-07T19:30:58.892Z,2.90
2018-10-07T19:33:32.894Z,3.00
2018-10-07T19:36:06.880Z,2.90
2018-10-07T19:38:40.556Z,3.00
2018-10-07T19:41:14.378Z,3.27
2018-10-07T19:43:48.381Z,3.30
2018-10-07T19:46:22.126Z,3.90
2018-10-07T19:48:55.949Z,4.50
2018-10-07T19:51:29.840Z,4.00
2018-10-07T19:54:03.712Z,3.80
2018-10-07T19:56:37.576Z,4.00
2018-10-07T19:59:11.397Z,3.50
2018-10-07T20:01:45.398Z,3.60
2018-10-07T20:04:19.319Z,3.50
2018-10-07T20:06:53.178Z,3.70
2018-10-07T20:09:26.889Z,4.00
2018-10-07T20:12:00.875Z,3.80
2018-10-07T20:14:34.566Z,3.77
2018-10-07T20:17:08.486Z,3.33
2018-10-07T20:19:42.443Z,3.23
2018-10-07T20:22:17.187Z,4.33
2018-10-07T20:24:50.871Z,4.10
2018-10-07T20:27:24.778Z,4.20
2018-10-07T20:29:58.671Z,3.77
2018-10-07T20:32:32.724Z,4.07
2018-10-07T20:35:06.557Z,3.60
2018-10-07T20:37:40.309Z,3.80
2018-10-07T20:40:14.027Z,4.00
2018-10-07T20:42:47.910Z,3.67
2018-10-07T20:45:21.983Z,3.33
2018-10-07T20:47:55.975Z,3.57
2018-10-07T20:50:29.750Z,3.63
2018-10-07T20:53:03.464Z,3.90
2018-10-07T20:55:37.190Z,3.60
2018-10-07T20:58:11.264Z,3.30
2018-10-07T21:00:45.040Z,3.67
2018-10-07T21:03:19.292Z,3.20
2018-10-07T21:05:53.022Z,3.57
2018-10-07T21:08:26.761Z,3.87
2018-10-07T21:11:00.715Z,3.43
2018-10-07T21:13:34.566Z,3.57
2018-10-07T21:16:08.439Z,3.60
2018-10-07T21:18:42.285Z,3.57
2018-10-07T21:21:15.965Z,3.77
2018-10-07T21:23:49.789Z,3.40
2018-10-07T21:26:23.592Z,3.63
2018-10-07T21:28:57.491Z,3.30
2018-10-07T21:31:31.319Z,3.57
2018-10-07T21:34:05.189Z,3.00
2018-10-07T21:36:39.044Z,3.77
2018-10-07T21:39:12.755Z,3.53
2018-10-07T21:41:46.726Z,3.50
2018-10-07T21:44:20.636Z,3.33
2018-10-07T21:46:54.503Z,3.10
2018-10-07T21:49:28.290Z,3.20
2018-10-07T21:52:01.959Z,3.23
2018-10-07T21:54:35.917Z,3.40
2018-10-07T21:57:09.623Z,3.00
2018-10-07T21:59:43.420Z,2.80
2018-10-07T22:02:17.337Z,3.13
2018-10-07T22:04:51.141Z,2.83
2018-10-07T22:07:24.879Z,2.83
2018-10-07T22:09:58.629Z,3.00
2018-10-07T22:12:32.338Z,2.63
2018-10-07T22:15:06.243Z,2.73
2018-10-07T22:17:40.186Z,2.90
2018-10-07T22:20:14.164Z,2.70
2018-10-07T22:22:47.999Z,2.20
2018-10-07T22:25:22.010Z,2.73
2018-10-07T22:27:55.807Z,2.37
2018-10-07T22:30:29.501Z,2.47
2018-10-07T22:33:03.513Z,2.47
2018-10-07T22:35:37.344Z,2.20
2018-10-07T22:38:11.329Z,2.50
2018-10-07T22:40:45.203Z,2.40
2018-10-07T22:43:19.103Z,2.50
2018-10-07T22:45:53.055Z,2.50
2018-10-07T22:48:27.045Z,2.10
2018-10-07T22:51:00.859Z,2.37
2018-10-07T22:53:34.943Z,2.17
2018-10-07T22:56:08.850Z,2.00
2018-10-07T22:58:42.895Z,2.23
2018-10-07T23:01:16.799Z,1.60
2018-10-07T23:03:50.684Z,2.00
2018-10-07T23:06:25.582Z,1.87
2018-10-07T23:08:59.683Z,1.70
2018-10-07T23:11:33.636Z,1.63
2018-10-07T23:14:07.753Z,1.80
2018-10-07T23:16:41.682Z,1.63
2018-10-07T23:19:15.649Z,1.30
2018-10-07T23:21:49.423Z,1.10
2018-10-07T23:24:23.669Z,0.83
2018-10-07T23:26:57.550Z,0.70
2018-10-07T23:29:31.781Z,0.80
2018-10-07T23:32:05.771Z,0.70
2018-10-07T23:34:39.664Z,0.60
2018-10-07T23:37:13.620Z,0.60
2018-10-07T23:39:47.699Z,0.40
2018-10-07T23:42:22.479Z,0.50
2018-10-07T23:44:56.642Z,0.60
2018-10-07T23:47:30.618Z,0.60
2018-10-07T23:50:04.407Z,0.70
2018-10-07T23:52:38.263Z,0.40
2018-10-07T23:55:12.468Z,0.60
2018-10-07T23:57:46.480Z,0.50
